createdAt,value
2022-08-18T00:01:04.725Z,65.25
2022-08-18T00:03:57.286Z,65.22
2022-08-18T00:06:18.379Z,65.22
2022-08-18T00:08:44.738Z,65.06
2022-08-18T00:11:11.081Z,65.00
2022-08-18T00:13:37.439Z,65.05
2022-08-18T00:16:03.844Z,65.16
2022-08-18T00:18:30.201Z,65.02
2022-08-18T00:20:56.592Z,65.02
2022-08-18T00:23:24.140Z,64.84
2022-08-18T00:25:50.510Z,65.08
2022-08-18T00:28:16.921Z,65.17
2022-08-18T00:30:43.282Z,65.43
2022-08-18T00:33:09.630Z,65.47
2022-08-18T00:35:36.503Z,65.43
2022-08-18T00:38:03.334Z,65.65
2022-08-18T00:40:35.741Z,65.71
2022-08-18T00:43:04.779Z,65.54
2022-08-18T00:45:34.241Z,65.65
2022-08-18T00:48:00.581Z,65.50
2022-08-18T00:50:41.162Z,65.72
2022-08-18T00:53:11.102Z,65.58
2022-08-18T00:55:37.471Z,65.48
2022-08-18T00:58:09.298Z,65.42
2022-08-18T01:00:36.171Z,65.44
2022-08-18T01:03:03.838Z,65.23
2022-08-18T01:05:33.974Z,65.39
2022-08-18T01:08:00.363Z,65.21
2022-08-18T01:10:26.794Z,65.27
2022-08-18T01:12:53.824Z,65.12
2022-08-18T01:15:29.037Z,65.35
2022-08-18T01:18:18.446Z,65.23
2022-08-18T01:21:06.423Z,65.37
2022-08-18T01:23:32.793Z,65.58
2022-08-18T01:26:04.153Z,65.61
2022-08-18T01:28:31.270Z,65.47
2022-08-18T01:31:00.509Z,65.52
2022-08-18T01:33:38.138Z,65.82
2022-08-18T01:36:16.447Z,65.94
2022-08-18T01:38:43.550Z,65.60
2022-08-18T01:41:26.974Z,65.64
2022-08-18T01:43:56.239Z,65.63
2022-08-18T01:46:23.167Z,65.61
2022-08-18T01:48:49.583Z,65.78
2022-08-18T01:51:15.993Z,65.94
2022-08-18T01:53:42.422Z,65.73
2022-08-18T01:56:09.173Z,65.55
2022-08-18T01:58:35.570Z,65.43
2022-08-18T02:01:02.606Z,65.61
2022-08-18T02:03:31.160Z,65.60
2022-08-18T02:06:00.970Z,65.56
2022-08-18T02:08:28.825Z,65.45
2022-08-18T02:10:55.290Z,65.56
2022-08-18T02:13:21.642Z,65.54
2022-08-18T02:15:48.005Z,65.33
2022-08-18T02:18:15.470Z,65.22
2022-08-18T02:21:28.281Z,65.24
2022-08-18T02:23:54.637Z,65.19
2022-08-18T02:26:20.995Z,65.16
2022-08-18T02:28:47.366Z,65.30
2022-08-18T02:31:14.622Z,65.21
2022-08-18T02:33:40.992Z,65.00
2022-08-18T02:36:18.235Z,65.01
2022-08-18T02:38:44.608Z,64.93
2022-08-18T02:41:21.747Z,64.93
2022-08-18T02:43:48.446Z,64.90
2022-08-18T02:46:14.802Z,64.82
2022-08-18T02:48:41.170Z,64.94
2022-08-18T02:51:09.420Z,64.91
2022-08-18T02:53:35.916Z,64.91
2022-08-18T02:56:33.034Z,64.86
2022-08-18T02:59:07.855Z,64.82
2022-08-18T03:01:35.031Z,64.96
2022-08-18T03:04:01.424Z,64.85
2022-08-18T03:06:28.041Z,64.82
2022-08-18T03:08:54.655Z,64.83
2022-08-18T03:11:22.285Z,64.72
2022-08-18T03:13:48.666Z,64.71
2022-08-18T03:16:15.958Z,64.72
2022-08-18T03:18:42.664Z,64.52
2022-08-18T03:21:09.981Z,64.71
2022-08-18T03:23:36.389Z,64.61
2022-08-18T03:26:02.754Z,64.59
2022-08-18T03:28:29.118Z,64.75
2022-08-18T03:30:55.465Z,64.60
2022-08-18T03:33:21.840Z,64.75
2022-08-18T03:35:48.205Z,64.61
2022-08-18T03:38:14.559Z,64.59
2022-08-18T03:40:42.833Z,64.60
2022-08-18T03:43:25.851Z,64.55
2022-08-18T03:45:55.537Z,64.52
2022-08-18T03:48:21.894Z,64.57
2022-08-18T03:50:48.411Z,64.42
2022-08-18T03:53:14.765Z,64.32
2022-08-18T03:55:41.239Z,64.58
2022-08-18T03:58:08.605Z,64.33
2022-08-18T04:00:37.991Z,64.59
2022-08-18T04:03:04.350Z,64.25
2022-08-18T04:05:30.747Z,64.33
2022-08-18T04:08:00.097Z,64.39
2022-08-18T04:10:26.551Z,64.33
2022-08-18T04:12:52.895Z,64.22
2022-08-18T04:15:19.243Z,64.28
2022-08-18T04:18:03.119Z,64.32
2022-08-18T04:20:33.050Z,64.27
2022-08-18T04:22:59.416Z,64.12
2022-08-18T04:25:32.126Z,64.13
2022-08-18T04:28:01.212Z,64.21
2022-08-18T04:30:28.991Z,64.23
2022-08-18T04:32:55.347Z,64.22
2022-08-18T04:35:23.558Z,64.30
2022-08-18T04:37:50.033Z,64.13
2022-08-18T04:40:19.214Z,64.07
2022-08-18T04:42:47.852Z,64.16
2022-08-18T04:45:14.222Z,63.94
2022-08-18T04:47:41.852Z,63.92
2022-08-18T04:50:08.290Z,63.89
2022-08-18T04:52:53.374Z,63.85
2022-08-18T04:55:19.972Z,63.90
2022-08-18T04:57:46.407Z,63.90
2022-08-18T05:00:13.880Z,63.93
2022-08-18T05:02:40.502Z,63.75
2022-08-18T05:05:07.047Z,63.96
2022-08-18T05:07:33.424Z,63.91
2022-08-18T05:09:59.822Z,63.85
2022-08-18T05:12:26.826Z,63.65
2022-08-18T05:14:53.843Z,63.71
2022-08-18T05:17:20.207Z,63.76
2022-08-18T05:19:46.553Z,63.78
2022-08-18T05:22:18.240Z,63.89
2022-08-18T05:24:44.849Z,63.77
2022-08-18T05:27:11.653Z,63.76
2022-08-18T05:29:41.631Z,63.63
2022-08-18T05:32:12.377Z,63.73
2022-08-18T05:34:59.714Z,63.68
2022-08-18T05:37:35.596Z,63.61
2022-08-18T05:40:07.444Z,63.67
2022-08-18T05:42:37.824Z,63.71
2022-08-18T05:45:05.817Z,63.85
2022-08-18T05:47:32.173Z,63.78
2022-08-18T05:50:03.747Z,63.77
2022-08-18T05:52:48.581Z,63.70
2022-08-18T05:55:39.094Z,63.83
2022-08-18T05:58:06.839Z,63.81
2022-08-18T06:00:33.213Z,63.74
2022-08-18T06:03:02.704Z,63.87
2022-08-18T06:05:30.856Z,63.77
2022-08-18T06:07:59.093Z,63.74
2022-08-18T06:10:26.210Z,63.84
2022-08-18T06:12:53.469Z,63.81
2022-08-18T06:15:25.307Z,63.94
2022-08-18T06:17:55.649Z,63.75
2022-08-18T06:20:34.308Z,63.78
2022-08-18T06:23:33.080Z,63.92
2022-08-18T06:26:10.397Z,63.87
2022-08-18T06:28:44.486Z,63.94
2022-08-18T06:31:18.679Z,63.93
2022-08-18T06:33:50.323Z,63.80
2022-08-18T06:36:32.805Z,63.87
2022-08-18T06:39:02.122Z,63.76
2022-08-18T06:41:43.099Z,63.84
2022-08-18T06:44:22.760Z,63.82
2022-08-18T06:47:09.395Z,63.79
2022-08-18T06:49:40.393Z,63.77
2022-08-18T06:52:26.409Z,63.69
2022-08-18T06:54:53.193Z,63.85
2022-08-18T06:57:39.760Z,63.83
2022-08-18T07:00:11.149Z,63.84
2022-08-18T07:02:39.218Z,63.81
2022-08-18T07:05:14.690Z,63.82
2022-08-18T07:07:41.423Z,64.00
2022-08-18T07:10:29.008Z,63.94
2022-08-18T07:13:14.906Z,63.88
2022-08-18T07:15:43.968Z,63.94
2022-08-18T07:18:10.386Z,63.81
2022-08-18T07:20:46.569Z,63.80
2022-08-18T07:23:25.338Z,63.78
2022-08-18T07:25:53.297Z,63.73
2022-08-18T07:28:33.579Z,63.79
2022-08-18T07:31:17.291Z,63.82
2022-08-18T07:33:45.165Z,63.94
2022-08-18T07:36:11.545Z,63.75
2022-08-18T07:38:43.039Z,63.83
2022-08-18T07:41:14.934Z,63.80
2022-08-18T07:43:53.909Z,63.89
2022-08-18T07:46:32.736Z,63.83
2022-08-18T07:48:59.546Z,63.72
2022-08-18T07:51:45.526Z,63.73
2022-08-18T07:54:45.400Z,63.68
2022-08-18T07:57:06.206Z,63.73
2022-08-18T07:59:51.289Z,63.65
2022-08-18T08:02:17.626Z,63.74
2022-08-18T08:05:02.666Z,63.73
2022-08-18T08:07:32.485Z,63.79
2022-08-18T08:10:14.122Z,63.85
2022-08-18T08:12:43.057Z,63.91
2022-08-18T08:15:13.037Z,63.72
2022-08-18T08:17:59.779Z,63.76
2022-08-18T08:20:32.906Z,63.61
2022-08-18T08:23:05.788Z,63.80
2022-08-18T08:25:52.879Z,63.77
2022-08-18T08:28:37.932Z,63.82
2022-08-18T08:31:35.555Z,63.72
2022-08-18T08:34:04.063Z,63.72
2022-08-18T08:36:33.360Z,63.74
2022-08-18T08:39:05.821Z,63.70
2022-08-18T08:41:39.851Z,63.70
2022-08-18T08:44:08.967Z,63.69
2022-08-18T08:46:40.061Z,63.70
2022-08-18T08:49:07.926Z,63.90
2022-08-18T08:51:38.949Z,63.76
2022-08-18T08:54:14.205Z,63.79
2022-08-18T08:56:42.733Z,63.85
2022-08-18T08:59:12.971Z,63.87
2022-08-18T09:01:48.045Z,63.82
2022-08-18T09:04:30.447Z,63.89
2022-08-18T09:07:05.909Z,63.84
2022-08-18T09:09:47.695Z,64.02
2022-08-18T09:12:29.382Z,63.95
2022-08-18T09:15:12.269Z,63.82
2022-08-18T09:17:41.591Z,63.97
2022-08-18T09:20:13.981Z,63.95
2022-08-18T09:22:45.571Z,64.00
2022-08-18T09:25:28.959Z,63.97
2022-08-18T09:28:10.856Z,63.89
2022-08-18T09:30:40.443Z,63.87
2022-08-18T09:33:19.814Z,63.85
2022-08-18T09:36:10.173Z,63.93
2022-08-18T09:38:55.837Z,63.91
2022-08-18T09:41:32.966Z,63.94
2022-08-18T09:44:17.729Z,63.84
2022-08-18T09:46:48.094Z,63.86
2022-08-18T09:49:23.798Z,63.94
2022-08-18T09:51:53.517Z,63.94
2022-08-18T09:54:21.163Z,63.91
2022-08-18T09:56:54.261Z,63.94
2022-08-18T09:59:34.225Z,63.93
2022-08-18T10:02:01.459Z,63.83
2022-08-18T10:04:33.511Z,63.86
2022-08-18T10:07:19.245Z,63.86
2022-08-18T10:09:53.015Z,63.91
2022-08-18T10:12:28.769Z,63.88
2022-08-18T10:14:58.465Z,63.99
2022-08-18T10:17:31.118Z,63.98
2022-08-18T10:20:09.935Z,63.79
2022-08-18T10:22:53.493Z,63.84
2022-08-18T10:25:36.790Z,63.80
2022-08-18T10:28:05.481Z,63.82
2022-08-18T10:33:39.679Z,63.83
2022-08-18T10:36:06.046Z,63.86
2022-08-18T10:38:37.396Z,63.77
2022-08-18T10:41:15.289Z,63.90
2022-08-18T10:43:45.724Z,63.75
2022-08-18T10:46:26.524Z,63.69
2022-08-18T10:48:58.271Z,63.71
2022-08-18T10:51:29.552Z,63.83
2022-08-18T10:54:22.924Z,63.90
2022-08-18T10:56:52.578Z,63.90
2022-08-18T10:59:28.752Z,63.75
2022-08-18T11:01:56.360Z,63.69
2022-08-18T11:04:33.401Z,63.89
2022-08-18T11:07:02.747Z,63.67
2022-08-18T11:09:34.400Z,63.73
2022-08-18T11:12:01.744Z,63.76
2022-08-18T11:14:41.735Z,63.71
2022-08-18T11:17:22.864Z,63.77
2022-08-18T11:19:50.806Z,63.83
2022-08-18T11:22:32.540Z,63.86
2022-08-18T11:25:00.779Z,63.69
2022-08-18T11:27:36.315Z,63.88
2022-08-18T11:30:03.220Z,63.77
2022-08-18T11:32:33.175Z,63.64
2022-08-18T11:35:11.558Z,63.80
2022-08-18T11:37:51.426Z,63.72
2022-08-18T11:43:30.047Z,63.75
2022-08-18T11:46:12.167Z,63.68
2022-08-18T11:48:54.056Z,63.66
2022-08-18T11:51:23.383Z,63.70
2022-08-18T11:56:40.824Z,63.65
2022-08-18T11:59:07.950Z,63.73
2022-08-18T12:01:40.819Z,63.58
2022-08-18T12:04:09.904Z,63.81
2022-08-18T12:06:37.418Z,63.78
2022-08-18T12:09:36.964Z,63.72
2022-08-18T12:12:13.723Z,63.66
2022-08-18T12:14:57.241Z,63.76
2022-08-18T12:17:29.909Z,63.67
2022-08-18T12:19:57.945Z,63.87
2022-08-18T12:22:26.551Z,63.61
2022-08-18T12:24:53.059Z,63.69
2022-08-18T12:27:21.347Z,63.78
2022-08-18T12:29:48.400Z,63.63
2022-08-18T12:32:18.289Z,63.68
2022-08-18T12:35:07.877Z,63.63
2022-08-18T12:40:24.120Z,63.72
2022-08-18T12:42:50.935Z,63.71
2022-08-18T12:45:17.544Z,63.54
2022-08-18T12:47:43.936Z,63.73
2022-08-18T12:50:10.665Z,63.68
2022-08-18T12:52:37.032Z,63.59
2022-08-18T12:55:08.592Z,63.77
2022-08-18T12:57:53.163Z,63.88
2022-08-18T13:00:21.098Z,64.01
2022-08-18T13:02:54.752Z,64.01
2022-08-18T13:05:26.629Z,64.13
2022-08-18T13:07:58.930Z,64.05
2022-08-18T13:10:43.327Z,64.03
2022-08-18T13:13:12.108Z,63.97
2022-08-18T13:15:38.659Z,63.98
2022-08-18T13:18:05.259Z,63.90
2022-08-18T13:20:31.626Z,63.95
2022-08-18T13:22:58.010Z,64.04
2022-08-18T13:25:32.350Z,63.93
2022-08-18T13:28:00.634Z,64.04
2022-08-18T13:30:31.512Z,64.11
2022-08-18T13:33:02.690Z,64.11
2022-08-18T13:35:45.874Z,64.21
2022-08-18T13:38:20.696Z,64.12
2022-08-18T13:40:49.242Z,64.22
2022-08-18T13:43:17.530Z,64.21
2022-08-18T13:45:46.250Z,64.30
2022-08-18T13:48:14.540Z,64.28
2022-08-18T13:50:40.891Z,64.48
2022-08-18T13:53:13.816Z,64.34
2022-08-18T13:55:40.227Z,64.25
2022-08-18T13:58:17.587Z,64.24
2022-08-18T14:00:47.465Z,64.29
2022-08-18T14:03:20.435Z,64.38
2022-08-18T14:06:01.678Z,64.28
2022-08-18T14:08:28.679Z,64.46
2022-08-18T14:10:56.859Z,64.79
2022-08-18T14:13:25.131Z,64.88
2022-08-18T14:15:53.840Z,65.20
2022-08-18T14:18:21.756Z,65.05
2022-08-18T14:21:14.809Z,65.28
2022-08-18T14:24:00.252Z,65.47
2022-08-18T14:26:56.144Z,65.41
2022-08-18T14:29:46.479Z,65.50
2022-08-18T14:32:09.299Z,65.49
2022-08-18T14:34:51.003Z,65.49
2022-08-18T14:37:22.175Z,65.60
2022-08-18T14:39:50.385Z,65.66
2022-08-18T14:42:21.179Z,65.62
2022-08-18T14:45:26.792Z,65.96
2022-08-18T14:48:00.508Z,65.91
2022-08-18T14:50:27.660Z,66.07
2022-08-18T14:52:54.015Z,66.13
2022-08-18T14:55:20.402Z,65.99
2022-08-18T14:57:46.800Z,65.78
2022-08-18T15:00:16.185Z,65.64
2022-08-18T15:02:43.058Z,65.74
2022-08-18T15:05:19.458Z,65.78
2022-08-18T15:07:50.643Z,65.85
2022-08-18T15:10:19.792Z,65.49
2022-08-18T15:12:49.530Z,65.60
2022-08-18T15:15:17.963Z,65.59
2022-08-18T15:17:44.780Z,65.55
2022-08-18T15:20:16.809Z,65.60
2022-08-18T15:23:02.072Z,65.57
2022-08-18T15:25:42.637Z,65.66
2022-08-18T15:28:16.309Z,65.82
2022-08-18T15:30:46.715Z,65.59
2022-08-18T15:33:17.710Z,65.62
2022-08-18T15:35:50.523Z,65.54
2022-08-18T15:38:18.072Z,65.60
2022-08-18T15:40:49.639Z,65.52
2022-08-18T15:43:25.346Z,65.47
2022-08-18T15:45:57.862Z,65.53
2022-08-18T15:48:24.687Z,65.33
2022-08-18T15:50:51.375Z,65.39
2022-08-18T15:53:19.161Z,65.44
2022-08-18T15:55:45.527Z,65.44
2022-08-18T15:58:16.402Z,65.42
2022-08-18T16:00:48.894Z,65.67
2022-08-18T16:03:16.894Z,65.54
2022-08-18T16:05:51.564Z,65.60
2022-08-18T16:08:23.527Z,65.55
2022-08-18T16:10:49.917Z,65.65
2022-08-18T16:13:16.382Z,65.44
2022-08-18T16:15:43.750Z,65.52
2022-08-18T16:18:10.602Z,65.52
2022-08-18T16:20:37.096Z,65.49
2022-08-18T16:23:05.345Z,65.52
2022-08-18T16:25:31.730Z,65.49
2022-08-18T16:27:58.473Z,65.51
2022-08-18T16:30:25.644Z,65.60
2022-08-18T16:32:52.224Z,65.53
2022-08-18T16:35:18.749Z,65.49
2022-08-18T16:37:46.614Z,65.45
2022-08-18T16:40:16.520Z,65.41
2022-08-18T16:42:43.186Z,65.47
2022-08-18T16:45:09.671Z,65.47
2022-08-18T16:47:38.969Z,65.51
2022-08-18T16:50:06.908Z,65.44
2022-08-18T16:52:33.493Z,65.49
2022-08-18T16:54:59.858Z,65.43
2022-08-18T16:57:53.804Z,65.42
2022-08-18T17:00:40.398Z,65.36
2022-08-18T17:03:25.356Z,65.45
2022-08-18T17:05:58.524Z,65.44
2022-08-18T17:08:25.227Z,65.40
2022-08-18T17:10:51.586Z,65.33
2022-08-18T17:13:18.067Z,65.53
2022-08-18T17:15:49.604Z,65.40
2022-08-18T17:18:16.157Z,65.41
2022-08-18T17:20:42.510Z,65.41
2022-08-18T17:23:12.997Z,65.39
2022-08-18T17:25:39.577Z,65.26
2022-08-18T17:28:10.075Z,65.31
2022-08-18T17:30:37.239Z,65.21
2022-08-18T17:33:05.669Z,65.40
2022-08-18T17:35:35.950Z,65.39
2022-08-18T17:38:07.382Z,65.08
2022-08-18T17:40:39.018Z,65.06
2022-08-18T17:43:09.714Z,65.20
2022-08-18T17:45:36.082Z,65.26
2022-08-18T17:48:07.728Z,65.23
2022-08-18T17:51:00.837Z,65.08
2022-08-18T17:53:27.214Z,64.98
2022-08-18T17:55:59.671Z,64.85
2022-08-18T17:58:31.338Z,64.99
2022-08-18T18:00:57.702Z,64.98
2022-08-18T18:03:24.072Z,65.04
2022-08-18T18:05:51.771Z,65.00
2022-08-18T18:08:18.398Z,64.84
2022-08-18T18:11:04.406Z,64.59
2022-08-18T18:13:32.421Z,64.21
2022-08-18T18:16:03.107Z,63.87
2022-08-18T18:18:32.198Z,63.89
2022-08-18T18:20:58.501Z,63.63
2022-08-18T18:23:25.204Z,63.59
2022-08-18T18:25:51.587Z,63.47
2022-08-18T18:28:31.094Z,63.29
2022-08-18T18:30:58.709Z,63.45
2022-08-18T18:33:28.975Z,63.01
2022-08-18T18:35:57.777Z,62.62
2022-08-18T18:38:25.447Z,62.98
2022-08-18T18:40:56.373Z,62.92
2022-08-18T18:43:24.317Z,62.48
2022-08-18T18:46:22.389Z,62.33
2022-08-18T18:49:00.667Z,62.65
2022-08-18T18:51:43.489Z,62.27
2022-08-18T18:54:12.585Z,62.26
2022-08-18T18:56:41.019Z,62.07
2022-08-18T18:59:16.539Z,61.87
2022-08-18T19:02:01.426Z,61.72
2022-08-18T19:04:29.031Z,61.91
2022-08-18T19:07:12.530Z,61.89
2022-08-18T19:10:06.794Z,61.80
2022-08-18T19:12:43.935Z,61.72
2022-08-18T19:15:14.606Z,61.68
2022-08-18T19:17:44.779Z,61.73
2022-08-18T19:20:18.509Z,61.64
2022-08-18T19:22:47.316Z,61.60
2022-08-18T19:25:14.694Z,61.75
2022-08-18T19:27:45.377Z,61.59
2022-08-18T19:30:13.595Z,61.59
2022-08-18T19:32:42.946Z,61.64
2022-08-18T19:35:11.900Z,61.58
2022-08-18T19:37:58.274Z,61.53
2022-08-18T19:40:28.650Z,61.46
2022-08-18T19:42:59.585Z,61.45
2022-08-18T19:45:33.972Z,61.53
2022-08-18T19:48:13.141Z,61.55
2022-08-18T19:50:46.747Z,61.48
2022-08-18T19:53:17.725Z,61.48
2022-08-18T19:55:49.929Z,61.57
2022-08-18T19:58:34.489Z,61.39
2022-08-18T20:01:01.839Z,61.50
2022-08-18T20:03:52.074Z,61.39
2022-08-18T20:06:34.114Z,61.66
2022-08-18T20:09:13.546Z,61.55
2022-08-18T20:11:46.541Z,61.52
2022-08-18T20:14:13.271Z,61.58
2022-08-18T20:16:44.591Z,61.78
2022-08-18T20:19:30.378Z,61.71
2022-08-18T20:22:03.446Z,61.83
2022-08-18T20:24:48.821Z,61.74
2022-08-18T20:27:22.845Z,61.67
2022-08-18T20:29:49.204Z,61.78
2022-08-18T20:32:19.466Z,61.92
2022-08-18T20:34:47.049Z,61.85
2022-08-18T20:37:13.414Z,62.04
2022-08-18T20:39:46.665Z,62.03
2022-08-18T20:42:21.960Z,62.09
2022-08-18T20:44:52.448Z,62.38
2022-08-18T20:47:28.267Z,62.57
2022-08-18T20:50:00.448Z,62.35
2022-08-18T20:52:35.930Z,62.78
2022-08-18T20:55:11.855Z,62.91
2022-08-18T20:57:38.582Z,63.04
2022-08-18T21:00:12.746Z,63.28
2022-08-18T21:02:40.648Z,63.17
2022-08-18T21:05:09.901Z,63.20
2022-08-18T21:08:02.609Z,63.39
2022-08-18T21:10:29.740Z,63.51
2022-08-18T21:12:58.309Z,63.54
2022-08-18T21:15:35.701Z,63.43
2022-08-18T21:18:03.258Z,63.41
2022-08-18T21:20:29.704Z,63.65
2022-08-18T21:23:04.164Z,63.52
2022-08-18T21:25:46.446Z,63.64
2022-08-18T21:28:12.933Z,63.61
2022-08-18T21:30:39.367Z,63.73
2022-08-18T21:33:19.967Z,63.69
2022-08-18T21:35:46.318Z,63.85
2022-08-18T21:38:12.750Z,64.14
2022-08-18T21:40:43.450Z,64.14
2022-08-18T21:43:10.341Z,64.25
2022-08-18T21:45:47.977Z,64.27
2022-08-18T21:48:14.547Z,63.95
2022-08-18T21:50:43.511Z,63.79
2022-08-18T21:53:12.914Z,63.92
2022-08-18T21:55:40.510Z,63.95
2022-08-18T21:58:06.839Z,63.92
2022-08-18T22:00:39.690Z,64.14
2022-08-18T22:03:18.047Z,64.44
2022-08-18T22:05:57.923Z,64.39
2022-08-18T22:08:26.516Z,64.18
2022-08-18T22:11:51.860Z,64.37
2022-08-18T22:14:26.956Z,64.45
2022-08-18T22:16:53.774Z,64.36
2022-08-18T22:19:20.103Z,64.21
2022-08-18T22:21:47.028Z,64.30
2022-08-18T22:24:20.131Z,64.34
2022-08-18T22:26:47.720Z,64.44
2022-08-18T22:29:28.275Z,64.51
2022-08-18T22:31:54.766Z,64.43
2022-08-18T22:34:27.415Z,64.59
2022-08-18T22:36:56.057Z,64.47
2022-08-18T22:39:51.616Z,64.51
2022-08-18T22:42:18.426Z,64.58
2022-08-18T22:44:44.780Z,64.74
2022-08-18T22:47:11.167Z,64.63
2022-08-18T22:49:37.521Z,64.81
2022-08-18T22:52:08.456Z,64.64
2022-08-18T22:54:34.843Z,64.57
2022-08-18T22:57:01.310Z,64.72
2022-08-18T22:59:28.275Z,64.97
2022-08-18T23:01:55.228Z,64.78
2022-08-18T23:04:21.826Z,64.82
2022-08-18T23:06:52.145Z,65.09
2022-08-18T23:09:19.384Z,64.92
2022-08-18T23:11:46.556Z,64.95
2022-08-18T23:14:12.942Z,64.83
2022-08-18T23:16:39.305Z,64.97
2022-08-18T23:19:05.694Z,65.23
2022-08-18T23:21:33.592Z,65.14
2022-08-18T23:24:01.469Z,65.22
2022-08-18T23:26:27.982Z,65.16
2022-08-18T23:28:56.913Z,65.19
2022-08-18T23:31:23.284Z,65.13
2022-08-18T23:33:49.668Z,65.21
2022-08-18T23:36:17.750Z,65.11
2022-08-18T23:38:44.135Z,65.14
2022-08-18T23:41:10.971Z,65.12
2022-08-18T23:43:38.031Z,65.29
2022-08-18T23:46:04.466Z,65.15
2022-08-18T23:48:30.862Z,65.35
2022-08-18T23:51:02.915Z,65.13
2022-08-18T23:53:30.591Z,64.96
2022-08-18T23:55:57.253Z,65.04
2022-08-18T23:58:23.627Z,65.22
